createdAt,value
2018-04-17T00:01:39.324Z,12.43
2018-04-17T00:04:05.332Z,12.90
2018-04-17T00:06:32.113Z,12.73
2018-04-17T00:08:58.180Z,12.33
2018-04-17T00:11:24.204Z,15.40
2018-04-17T00:13:50.244Z,13.03
2018-04-17T00:16:16.293Z,11.07
2018-04-17T00:18:42.309Z,9.80
2018-04-17T00:21:08.332Z,11.30
2018-04-17T00:23:34.344Z,11.47
2018-04-17T00:26:01.108Z,11.90
2018-04-17T00:28:27.178Z,12.87
2018-04-17T00:30:53.224Z,14.40
2018-04-17T00:33:19.304Z,13.07
2018-04-17T00:35:45.656Z,13.13
2018-04-17T00:38:11.727Z,15.97
2018-04-17T00:40:37.768Z,14.60
2018-04-17T00:43:03.796Z,11.87
2018-04-17T00:45:29.808Z,18.33
2018-04-17T00:47:55.877Z,12.70
2018-04-17T00:50:21.902Z,12.93
2018-04-17T00:52:48.359Z,10.23
2018-04-17T00:55:14.396Z,9.93
2018-04-17T00:57:40.395Z,14.03
2018-04-17T01:00:06.883Z,12.67
2018-04-17T01:02:32.920Z,13.90
2018-04-17T01:04:58.964Z,9.80
2018-04-17T01:07:24.992Z,7.57
2018-04-17T01:09:51.006Z,13.57
2018-04-17T01:12:17.041Z,12.60
2018-04-17T01:14:43.041Z,15.23
2018-04-17T01:17:09.201Z,12.53
2018-04-17T01:19:35.229Z,8.80
2018-04-17T01:22:01.250Z,14.67
2018-04-17T01:24:27.292Z,15.37
2018-04-17T01:26:53.301Z,13.90
2018-04-17T01:29:19.345Z,12.93
2018-04-17T01:31:45.385Z,14.20
2018-04-17T01:34:11.409Z,12.87
2018-04-17T01:36:37.476Z,15.90
2018-04-17T01:39:03.628Z,15.07
2018-04-17T01:41:29.666Z,13.07
2018-04-17T01:43:55.697Z,12.63
2018-04-17T01:46:21.712Z,12.13
2018-04-17T01:48:47.792Z,13.97
2018-04-17T01:51:13.926Z,11.97
2018-04-17T01:53:39.932Z,10.37
2018-04-17T01:56:05.992Z,10.73
2018-04-17T01:58:32.684Z,10.07
2018-04-17T02:00:58.912Z,10.63
2018-04-17T02:03:24.941Z,15.57
2018-04-17T02:05:51.030Z,9.67
2018-04-17T02:08:17.812Z,11.60
2018-04-17T02:10:43.837Z,16.17
2018-04-17T02:13:09.889Z,11.70
2018-04-17T02:15:35.940Z,13.67
2018-04-17T02:18:02.709Z,12.90
2018-04-17T02:20:28.760Z,9.60
2018-04-17T02:22:54.804Z,13.03
2018-04-17T02:25:20.827Z,16.40
2018-04-17T02:27:46.874Z,9.37
2018-04-17T02:30:13.038Z,12.93
2018-04-17T02:32:39.076Z,10.97
2018-04-17T02:35:05.083Z,13.93
2018-04-17T02:37:31.535Z,11.27
2018-04-17T02:39:57.635Z,9.27
2018-04-17T02:42:23.681Z,10.33
2018-04-17T02:44:49.728Z,12.63
2018-04-17T02:47:15.748Z,13.70
2018-04-17T02:49:41.788Z,12.27
2018-04-17T02:52:07.832Z,10.63
2018-04-17T02:54:33.908Z,12.57
2018-04-17T02:56:59.937Z,12.80
2018-04-17T02:59:26.006Z,14.20
2018-04-17T03:01:53.033Z,13.90
2018-04-17T03:04:19.069Z,13.43
2018-04-17T03:06:45.101Z,10.43
2018-04-17T03:09:11.881Z,13.03
2018-04-17T03:11:37.935Z,16.10
2018-04-17T03:14:03.971Z,16.37
2018-04-17T03:16:30.025Z,16.50
2018-04-17T03:18:56.920Z,14.73
2018-04-17T03:21:22.925Z,21.57
2018-04-17T03:23:49.078Z,15.60
2018-04-17T03:26:15.109Z,16.70
2018-04-17T03:28:41.894Z,18.73
2018-04-17T03:31:07.912Z,15.03
2018-04-17T03:33:33.955Z,15.37
2018-04-17T03:36:00.025Z,18.27
2018-04-17T03:38:26.046Z,18.90
2018-04-17T03:40:52.119Z,15.63
2018-04-17T03:43:18.156Z,17.90
2018-04-17T03:45:44.153Z,18.07
2018-04-17T03:48:10.316Z,18.13
2018-04-17T03:50:36.358Z,16.23
2018-04-17T03:53:02.409Z,22.20
2018-04-17T03:55:28.545Z,15.43
2018-04-17T03:57:54.556Z,16.83
2018-04-17T04:00:20.617Z,18.33
2018-04-17T04:02:46.680Z,15.57
2018-04-17T04:05:12.688Z,20.17
2018-04-17T04:07:38.979Z,21.57
2018-04-17T04:10:05.018Z,21.90
2018-04-17T04:12:31.044Z,20.07
2018-04-17T04:14:57.089Z,23.77
2018-04-17T04:17:35.913Z,19.47
2018-04-17T04:20:14.180Z,21.67
2018-04-17T04:22:52.572Z,16.63
2018-04-17T04:25:32.372Z,21.53
2018-04-17T04:27:58.396Z,20.20
2018-04-17T04:30:26.180Z,25.67
2018-04-17T04:32:52.983Z,23.23
2018-04-17T04:35:19.005Z,21.87
2018-04-17T04:37:45.009Z,21.97
2018-04-17T04:40:11.028Z,31.30
2018-04-17T04:42:37.080Z,25.93
2018-04-17T04:45:03.129Z,20.77
2018-04-17T04:47:29.588Z,23.47
2018-04-17T04:49:55.699Z,24.27
2018-04-17T04:52:21.708Z,24.40
2018-04-17T04:54:47.800Z,23.63
2018-04-17T04:57:13.841Z,28.17
2018-04-17T04:59:39.861Z,25.17
2018-04-17T05:02:05.884Z,22.30
2018-04-17T05:04:31.900Z,25.77
2018-04-17T05:06:57.999Z,20.50
2018-04-17T05:09:24.151Z,27.73
2018-04-17T05:11:50.172Z,22.10
2018-04-17T05:14:16.200Z,23.30
2018-04-17T05:16:42.344Z,21.37
2018-04-17T05:19:08.397Z,27.37
2018-04-17T05:21:34.460Z,24.83
2018-04-17T05:24:00.504Z,27.93
2018-04-17T05:26:27.128Z,25.30
2018-04-17T05:28:53.145Z,30.07
2018-04-17T05:31:19.148Z,24.53
2018-04-17T05:33:45.457Z,28.87
2018-04-17T05:36:11.592Z,24.37
2018-04-17T05:38:37.604Z,25.33
2018-04-17T05:41:03.628Z,23.97
2018-04-17T05:43:29.660Z,30.03
2018-04-17T05:45:55.860Z,34.13
2018-04-17T05:48:21.884Z,34.67
2018-04-17T05:50:47.892Z,31.40
2018-04-17T05:53:14.656Z,34.90
2018-04-17T05:55:40.704Z,37.47
2018-04-17T05:58:06.791Z,41.10
2018-04-17T06:00:32.813Z,41.83
2018-04-17T06:02:59.577Z,41.10
2018-04-17T06:05:25.592Z,37.57
2018-04-17T06:07:51.633Z,44.47
2018-04-17T06:10:17.996Z,46.00
2018-04-17T06:12:44.000Z,44.57
2018-04-17T06:15:10.040Z,45.80
2018-04-17T06:17:36.201Z,43.00
2018-04-17T06:20:02.253Z,43.07
2018-04-17T06:22:28.301Z,34.13
2018-04-17T06:24:54.475Z,43.03
2018-04-17T06:27:20.545Z,40.37
2018-04-17T06:29:46.561Z,35.93
2018-04-17T06:32:12.714Z,38.10
2018-04-17T06:34:39.118Z,37.50
2018-04-17T06:37:05.148Z,33.37
2018-04-17T06:39:31.338Z,33.07
2018-04-17T06:41:57.836Z,35.83
2018-04-17T06:44:23.868Z,38.10
2018-04-17T06:46:50.188Z,38.73
2018-04-17T06:49:16.208Z,31.40
2018-04-17T06:51:42.232Z,35.50
2018-04-17T06:54:08.536Z,34.23
2018-04-17T06:56:34.592Z,40.37
2018-04-17T06:59:00.648Z,31.70
2018-04-17T07:01:27.428Z,32.27
2018-04-17T07:03:53.860Z,31.10
2018-04-17T07:06:19.861Z,33.77
2018-04-17T07:08:45.880Z,32.43
2018-04-17T07:11:12.089Z,29.07
2018-04-17T07:13:38.096Z,27.83
2018-04-17T07:16:04.160Z,29.63
2018-04-17T07:18:30.204Z,31.30
2018-04-17T07:20:56.314Z,33.97
2018-04-17T07:23:22.456Z,23.30
2018-04-17T07:25:48.504Z,25.53
2018-04-17T07:28:14.517Z,28.53
2018-04-17T07:30:40.615Z,29.17
2018-04-17T07:33:06.672Z,27.63
2018-04-17T07:35:32.776Z,24.20
2018-04-17T07:37:58.900Z,24.53
2018-04-17T07:40:24.934Z,22.50
2018-04-17T07:42:50.936Z,22.90
2018-04-17T07:45:17.089Z,25.97
2018-04-17T07:48:08.545Z,28.23
2018-04-17T07:50:34.576Z,23.97
2018-04-17T07:53:00.693Z,27.20
2018-04-17T07:55:26.696Z,21.27
2018-04-17T07:57:52.728Z,20.70
2018-04-17T08:00:19.241Z,25.97
2018-04-17T08:02:45.278Z,23.37
2018-04-17T08:05:11.292Z,23.03
2018-04-17T08:07:37.516Z,22.47
2018-04-17T08:10:03.567Z,20.70
2018-04-17T08:12:29.617Z,22.10
2018-04-17T08:14:55.676Z,18.10
2018-04-17T08:17:21.688Z,21.50
2018-04-17T08:19:47.704Z,18.57
2018-04-17T08:22:13.757Z,15.70
2018-04-17T08:24:40.137Z,20.30
2018-04-17T08:27:06.170Z,20.50
2018-04-17T08:29:32.556Z,21.67
2018-04-17T08:31:58.685Z,18.33
2018-04-17T08:34:24.730Z,19.37
2018-04-17T08:36:50.792Z,19.50
2018-04-17T08:39:16.793Z,21.43
2018-04-17T08:41:42.813Z,16.03
2018-04-17T08:44:08.925Z,17.93
2018-04-17T08:46:35.065Z,17.33
2018-04-17T08:49:01.118Z,15.50
2018-04-17T08:51:27.588Z,14.93
2018-04-17T08:53:53.592Z,15.97
2018-04-17T08:56:20.036Z,13.17
2018-04-17T08:58:46.064Z,12.67
2018-04-17T09:01:12.072Z,13.77
2018-04-17T09:03:38.137Z,13.40
2018-04-17T09:06:04.177Z,11.57
2018-04-17T09:08:30.172Z,16.40
2018-04-17T09:10:56.180Z,12.77
2018-04-17T09:13:22.204Z,10.93
2018-04-17T09:15:48.276Z,11.80
2018-04-17T09:18:14.304Z,12.47
2018-04-17T09:20:40.312Z,13.60
2018-04-17T09:23:06.337Z,13.27
2018-04-17T09:25:32.377Z,13.27
2018-04-17T09:27:58.444Z,12.47
2018-04-17T09:30:24.444Z,13.87
2018-04-17T09:32:51.197Z,14.63
2018-04-17T09:35:17.231Z,11.73
2018-04-17T09:37:43.264Z,10.27
2018-04-17T09:40:09.289Z,11.30
2018-04-17T09:42:35.357Z,12.60
2018-04-17T09:45:01.353Z,12.87
2018-04-17T09:47:27.384Z,10.57
2018-04-17T09:49:53.797Z,13.17
2018-04-17T09:52:19.892Z,14.37
2018-04-17T09:54:45.916Z,12.40
2018-04-17T09:57:12.651Z,10.50
2018-04-17T09:59:38.770Z,13.17
2018-04-17T10:02:04.773Z,10.40
2018-04-17T10:04:30.802Z,10.33
2018-04-17T10:06:56.868Z,11.90
2018-04-17T10:09:23.228Z,10.57
2018-04-17T10:11:49.273Z,10.60
2018-04-17T10:14:15.309Z,7.60
2018-04-17T10:16:41.313Z,6.43
2018-04-17T10:19:08.257Z,10.73
2018-04-17T10:21:34.284Z,8.03
2018-04-17T10:24:00.312Z,11.10
2018-04-17T10:26:26.316Z,8.07
2018-04-17T10:28:52.328Z,9.47
2018-04-17T10:31:18.856Z,9.77
2018-04-17T10:33:44.908Z,12.53
2018-04-17T10:36:10.941Z,8.63
2018-04-17T10:38:36.981Z,11.57
2018-04-17T10:41:03.008Z,9.43
2018-04-17T10:43:29.804Z,10.50
2018-04-17T10:45:55.854Z,10.07
2018-04-17T10:48:21.884Z,10.83
2018-04-17T10:50:47.904Z,11.77
2018-04-17T10:53:13.944Z,7.63
2018-04-17T10:55:40.001Z,9.77
2018-04-17T10:58:06.828Z,7.87
2018-04-17T11:00:32.844Z,11.10
2018-04-17T11:02:58.869Z,9.53
2018-04-17T11:05:25.129Z,8.07
2018-04-17T11:07:51.128Z,13.20
2018-04-17T11:10:17.216Z,9.37
2018-04-17T11:12:43.341Z,13.57
2018-04-17T11:15:09.340Z,14.10
2018-04-17T11:17:35.382Z,9.10
2018-04-17T11:20:01.419Z,9.23
2018-04-17T11:22:28.028Z,11.57
2018-04-17T11:24:54.040Z,9.67
2018-04-17T11:27:20.048Z,15.10
2018-04-17T11:29:46.076Z,12.63
2018-04-17T11:32:12.530Z,7.90
2018-04-17T11:34:38.682Z,12.23
2018-04-17T11:37:04.628Z,10.80
2018-04-17T11:39:30.659Z,11.13
2018-04-17T11:41:56.676Z,12.70
2018-04-17T11:44:22.677Z,15.47
2018-04-17T11:46:49.080Z,13.70
2018-04-17T11:49:15.416Z,12.63
2018-04-17T11:51:41.453Z,16.37
2018-04-17T11:54:07.497Z,13.17
2018-04-17T11:56:33.521Z,16.03
2018-04-17T11:58:59.604Z,13.00
2018-04-17T12:01:25.662Z,13.30
2018-04-17T12:03:51.690Z,11.33
2018-04-17T12:06:18.452Z,10.80
2018-04-17T12:08:44.464Z,11.87
2018-04-17T12:11:10.520Z,11.00
2018-04-17T12:13:36.695Z,14.07
2018-04-17T12:16:02.769Z,10.53
2018-04-17T12:18:28.766Z,8.27
2018-04-17T12:20:54.832Z,15.03
2018-04-17T12:23:20.911Z,11.70
2018-04-17T12:25:46.953Z,14.83
2018-04-17T12:28:12.961Z,9.07
2018-04-17T12:30:38.972Z,9.97
2018-04-17T12:33:05.012Z,13.23
2018-04-17T12:35:31.081Z,10.03
2018-04-17T12:37:57.128Z,9.23
2018-04-17T12:40:23.145Z,11.97
2018-04-17T12:42:49.149Z,12.23
2018-04-17T12:45:15.205Z,8.97
2018-04-17T12:47:41.531Z,10.40
2018-04-17T12:50:07.605Z,9.00
2018-04-17T12:52:33.640Z,10.87
2018-04-17T12:55:00.392Z,9.30
2018-04-17T12:57:26.448Z,13.63
2018-04-17T12:59:52.469Z,8.87
2018-04-17T13:02:18.485Z,13.40
2018-04-17T13:04:44.545Z,9.23
2018-04-17T13:07:10.545Z,9.10
2018-04-17T13:09:36.691Z,11.93
2018-04-17T13:12:03.061Z,12.37
2018-04-17T13:14:29.836Z,10.03
2018-04-17T13:16:55.836Z,10.23
2018-04-17T13:19:21.860Z,12.97
2018-04-17T13:21:48.168Z,9.57
2018-04-17T13:24:20.201Z,11.97
2018-04-17T13:26:46.225Z,12.63
2018-04-17T13:29:12.738Z,9.83
2018-04-17T13:31:38.757Z,10.67
2018-04-17T13:34:04.786Z,9.37
2018-04-17T13:36:30.848Z,10.00
2018-04-17T13:38:57.233Z,8.77
2018-04-17T13:41:23.248Z,7.47
2018-04-17T13:43:49.280Z,10.23
2018-04-17T13:46:15.542Z,9.40
2018-04-17T13:48:41.628Z,7.33
2018-04-17T13:51:07.646Z,8.20
2018-04-17T13:53:34.609Z,6.60
2018-04-17T13:56:00.634Z,10.67
2018-04-17T13:58:26.644Z,6.33
2018-04-17T14:00:52.804Z,7.40
2018-04-17T14:03:18.820Z,6.33
2018-04-17T14:05:44.968Z,8.50
2018-04-17T14:08:10.995Z,9.37
2018-04-17T14:10:37.006Z,9.90
2018-04-17T14:13:03.057Z,9.47
2018-04-17T14:15:29.104Z,9.60
2018-04-17T14:17:55.877Z,8.33
2018-04-17T14:20:21.922Z,10.50
2018-04-17T14:22:47.961Z,4.47
2018-04-17T14:25:13.980Z,7.80
2018-04-17T14:27:40.144Z,9.00
2018-04-17T14:30:07.316Z,7.00
2018-04-17T14:32:33.360Z,5.97
2018-04-17T14:34:59.388Z,9.23
2018-04-17T14:37:25.908Z,9.43
2018-04-17T14:39:51.997Z,7.47
2018-04-17T14:42:18.161Z,13.43
2018-04-17T14:44:44.592Z,7.97
2018-04-17T14:47:10.627Z,9.63
2018-04-17T14:49:36.629Z,11.17
2018-04-17T14:52:02.694Z,8.63
2018-04-17T14:54:28.758Z,7.97
2018-04-17T14:56:55.532Z,8.73
2018-04-17T14:59:21.558Z,8.20
2018-04-17T15:01:47.620Z,7.83
2018-04-17T15:04:13.649Z,5.30
2018-04-17T15:06:39.824Z,8.40
2018-04-17T15:09:05.835Z,9.93
2018-04-17T15:11:31.893Z,8.63
2018-04-17T15:13:57.985Z,10.80
2018-04-17T15:16:24.032Z,8.70
2018-04-17T15:18:50.088Z,6.83
2018-04-17T15:21:16.096Z,7.13
2018-04-17T15:23:42.255Z,5.97
2018-04-17T15:26:08.320Z,4.83
2018-04-17T15:28:34.348Z,9.17
2018-04-17T15:31:00.380Z,22.50
2018-04-17T15:33:26.468Z,12.03
2018-04-17T15:35:52.481Z,9.97
2018-04-17T15:38:18.581Z,7.33
2018-04-17T15:40:44.573Z,11.53
2018-04-17T15:43:10.804Z,10.07
2018-04-17T15:45:36.864Z,13.57
2018-04-17T15:48:02.904Z,11.27
2018-04-17T15:50:28.920Z,8.90
2018-04-17T15:52:54.936Z,8.77
2018-04-17T15:55:20.973Z,8.57
2018-04-17T15:57:47.001Z,8.20
2018-04-17T16:00:13.796Z,11.87
2018-04-17T16:02:39.782Z,10.20
2018-04-17T16:05:05.861Z,10.57
2018-04-17T16:07:31.889Z,7.33
2018-04-17T16:09:57.937Z,9.33
2018-04-17T16:12:23.948Z,10.13
2018-04-17T16:14:49.989Z,11.07
2018-04-17T16:17:16.021Z,7.60
2018-04-17T16:19:42.901Z,10.93
2018-04-17T16:22:08.976Z,9.20
2018-04-17T16:24:34.992Z,8.67
2018-04-17T16:27:01.011Z,7.93
2018-04-17T16:29:27.033Z,12.97
2018-04-17T16:31:53.320Z,11.87
2018-04-17T16:34:19.348Z,10.57
2018-04-17T16:36:45.481Z,11.10
2018-04-17T16:39:11.522Z,12.33
2018-04-17T16:41:37.608Z,11.33
2018-04-17T16:44:03.657Z,9.63
2018-04-17T16:46:29.761Z,9.87
2018-04-17T16:48:55.794Z,10.20
2018-04-17T16:51:21.869Z,7.40
2018-04-17T16:53:47.900Z,10.17
2018-04-17T16:56:13.924Z,12.37
2018-04-17T16:58:40.285Z,10.40
2018-04-17T17:01:06.296Z,11.10
2018-04-17T17:03:32.661Z,11.17
2018-04-17T17:05:58.696Z,11.00
2018-04-17T17:08:24.724Z,12.90
2018-04-17T17:10:50.962Z,11.50
2018-04-17T17:13:16.965Z,11.17
2018-04-17T17:15:43.021Z,9.17
2018-04-17T17:18:09.141Z,10.77
2018-04-17T17:20:35.181Z,11.57
2018-04-17T17:23:01.229Z,8.47
2018-04-17T17:25:27.488Z,8.53
2018-04-17T17:27:53.508Z,10.57
2018-04-17T17:30:19.528Z,14.20
2018-04-17T17:32:45.656Z,9.87
2018-04-17T17:35:11.725Z,9.17
2018-04-17T17:37:38.231Z,10.53
2018-04-17T17:40:04.240Z,9.60
2018-04-17T17:42:30.739Z,9.10
2018-04-17T17:44:56.756Z,11.90
2018-04-17T17:47:23.136Z,7.87
2018-04-17T17:49:49.149Z,11.13
2018-04-17T17:52:15.156Z,8.97
2018-04-17T17:54:41.385Z,10.37
2018-04-17T17:57:07.389Z,9.10
2018-04-17T17:59:33.548Z,9.20
2018-04-17T18:02:00.344Z,12.87
2018-04-17T18:04:27.092Z,10.27
2018-04-17T18:06:53.164Z,10.27
2018-04-17T18:09:19.228Z,9.57
2018-04-17T18:11:45.256Z,6.57
2018-04-17T18:14:11.272Z,12.40
2018-04-17T18:16:37.345Z,11.33
2018-04-17T18:19:03.408Z,11.70
2018-04-17T18:21:29.437Z,9.20
2018-04-17T18:23:55.473Z,8.23
2018-04-17T18:26:21.624Z,10.40
2018-04-17T18:28:47.625Z,10.90
2018-04-17T18:31:13.653Z,9.53
2018-04-17T18:33:39.669Z,13.50
2018-04-17T18:36:05.725Z,7.47
2018-04-17T18:38:31.743Z,10.97
2018-04-17T18:40:57.797Z,13.40
2018-04-17T18:43:24.352Z,10.53
2018-04-17T18:45:50.386Z,10.67
2018-04-17T18:48:16.469Z,9.67
2018-04-17T18:50:43.252Z,11.93
2018-04-17T18:53:09.297Z,11.20
2018-04-17T18:55:35.303Z,11.17
2018-04-17T18:58:01.338Z,8.93
2018-04-17T19:00:27.394Z,7.27
2018-04-17T19:02:53.422Z,7.30
2018-04-17T19:05:20.193Z,9.27
2018-04-17T19:07:46.636Z,11.03
2018-04-17T19:10:12.700Z,12.33
2018-04-17T19:12:39.488Z,16.03
2018-04-17T19:15:05.497Z,13.40
2018-04-17T19:17:31.500Z,10.37
2018-04-17T19:19:58.184Z,11.10
2018-04-17T19:22:24.261Z,8.50
2018-04-17T19:24:50.339Z,9.10
2018-04-17T19:27:16.365Z,8.27
2018-04-17T19:29:42.500Z,13.37
2018-04-17T19:32:08.652Z,10.30
2018-04-17T19:34:34.677Z,8.77
2018-04-17T19:37:00.707Z,15.17
2018-04-17T19:39:26.849Z,10.43
2018-04-17T19:41:53.597Z,9.00
2018-04-17T19:44:19.657Z,11.27
2018-04-17T19:46:45.918Z,7.63
2018-04-17T19:49:11.985Z,10.53
2018-04-17T19:51:38.016Z,11.70
2018-04-17T19:54:04.021Z,10.23
2018-04-17T19:56:30.064Z,11.40
2018-04-17T19:58:56.132Z,8.73
2018-04-17T20:01:22.181Z,10.57
2018-04-17T20:03:48.225Z,11.77
2018-04-17T20:06:14.260Z,10.80
2018-04-17T20:08:40.302Z,10.80
2018-04-17T20:11:06.357Z,13.43
2018-04-17T20:13:32.400Z,11.90
2018-04-17T20:15:58.468Z,10.17
2018-04-17T20:18:25.303Z,11.17
2018-04-17T20:20:52.060Z,11.83
2018-04-17T20:23:18.129Z,10.93
2018-04-17T20:25:44.157Z,7.93
2018-04-17T20:28:10.217Z,11.13
2018-04-17T20:30:36.611Z,11.60
2018-04-17T20:33:02.669Z,10.23
2018-04-17T20:35:29.420Z,9.63
2018-04-17T20:37:55.488Z,8.97
2018-04-17T20:40:21.568Z,12.33
2018-04-17T20:42:47.572Z,12.00
2018-04-17T20:45:14.371Z,12.63
2018-04-17T20:47:40.784Z,10.37
2018-04-17T20:50:06.858Z,13.30
2018-04-17T20:52:32.912Z,14.37
2018-04-17T20:54:59.234Z,14.20
2018-04-17T20:57:25.396Z,15.43
2018-04-17T20:59:51.532Z,13.13
2018-04-17T21:02:17.569Z,11.47
2018-04-17T21:04:44.368Z,11.93
2018-04-17T21:07:10.386Z,12.17
2018-04-17T21:09:36.400Z,11.13
2018-04-17T21:12:02.425Z,12.70
2018-04-17T21:14:28.445Z,12.63
2018-04-17T21:16:54.516Z,14.57
2018-04-17T21:19:20.540Z,13.23
2018-04-17T21:21:46.577Z,14.20
2018-04-17T21:24:12.638Z,14.27
2018-04-17T21:26:39.388Z,15.00
2018-04-17T21:29:05.481Z,11.83
2018-04-17T21:31:31.488Z,13.20
2018-04-17T21:33:57.525Z,12.33
2018-04-17T21:36:23.548Z,15.50
2018-04-17T21:38:49.544Z,16.20
2018-04-17T21:41:15.576Z,11.33
2018-04-17T21:43:41.628Z,11.40
2018-04-17T21:46:07.671Z,14.53
2018-04-17T21:48:33.665Z,10.40
2018-04-17T21:50:59.736Z,11.27
2018-04-17T21:53:25.792Z,14.07
2018-04-17T21:55:51.852Z,15.00
2018-04-17T21:58:17.860Z,12.63
2018-04-17T22:00:44.365Z,13.80
2018-04-17T22:03:10.373Z,15.60
2018-04-17T22:05:36.435Z,13.57
2018-04-17T22:08:02.506Z,18.17
2018-04-17T22:10:28.875Z,21.23
2018-04-17T22:12:54.998Z,18.43
2018-04-17T22:15:21.000Z,20.00
2018-04-17T22:17:47.044Z,17.00
2018-04-17T22:20:13.236Z,17.53
2018-04-17T22:22:39.297Z,20.10
2018-04-17T22:25:05.328Z,16.87
2018-04-17T22:27:31.336Z,20.30
2018-04-17T22:29:57.381Z,13.90
2018-04-17T22:32:23.480Z,18.13
2018-04-17T22:34:49.545Z,17.03
2018-04-17T22:37:15.566Z,15.07
2018-04-17T22:39:42.325Z,14.03
2018-04-17T22:42:08.340Z,14.67
2018-04-17T22:44:34.352Z,11.73
2018-04-17T22:47:00.747Z,14.60
2018-04-17T22:49:26.792Z,17.27
2018-04-17T22:51:52.864Z,15.87
2018-04-17T22:54:18.880Z,14.43
2018-04-17T22:56:44.903Z,15.00
2018-04-17T22:59:10.918Z,14.73
2018-04-17T23:01:36.968Z,12.07
2018-04-17T23:04:03.009Z,13.53
2018-04-17T23:06:29.052Z,13.47
2018-04-17T23:08:55.055Z,12.70
2018-04-17T23:11:21.301Z,16.03
2018-04-17T23:13:47.344Z,13.33
2018-04-17T23:16:13.420Z,14.80
2018-04-17T23:18:40.160Z,13.27
2018-04-17T23:21:06.228Z,15.13
2018-04-17T23:23:32.249Z,12.67
2018-04-17T23:25:58.312Z,13.50
2018-04-17T23:28:24.336Z,14.87
2018-04-17T23:30:50.354Z,15.53
2018-04-17T23:33:16.402Z,17.50
2018-04-17T23:35:42.413Z,18.23
2018-04-17T23:38:08.569Z,16.00
2018-04-17T23:40:34.595Z,15.53
2018-04-17T23:43:00.613Z,17.83
2018-04-17T23:45:26.694Z,15.93
2018-04-17T23:47:52.697Z,15.70
2018-04-17T23:50:18.738Z,12.93
2018-04-17T23:52:44.927Z,14.73
2018-04-17T23:55:10.953Z,15.87
2018-04-17T23:57:37.005Z,16.83
